Dauphin Barker Airport
CYDN : now visible

Aeroporto :











RITROVATECI SU...

 
LOGIN :

Iscrizione | Disclaimer

   EN    FR    IT 

 









Sommario :    VFR   VFR Marginale   IFR   IFR Intensivo   IFR Molto Intensivo
Visibilità : 
Base nubi : 
>= 8 km
>= 3000ft
5 / 8 km
1000 / 3000 ft
1500m / 5 km
500 / 1000 ft
800 / 1500m
200 / 500 ft
< 800m
< 200 ft
Simboli :   Temporali  Nebbia  Neve Forte  Precipitazioni Forti  Vento > 20 kt






- Altitudine del aeroporto : 999 ft
- Codice IATA : YDN


CYDN - Dauphin Barker

ULTIMO METAR :
  • 150400Z AUTO 25009KT 9SM CLR M25/M28 A2993 RMK SLP179

METARs OBSOLETI :
  • 150300Z AUTO 24007KT 9SM CLR M28/M31 A2995 RMK SLP188
  • 150200Z AUTO 28006KT 9SM CLR M29/M32 A2996 RMK SLP194

TAF TAF CYDN
Valido dal 15 a 00 ore il 15 a 12 ore UTC


142353Z 1500/1512 24006KT P6SM SKC
FM150900 24006KT P6SM SCT012 SCT080
TEMPO 1509/1512 4SM BR SCT006 BKN012 BKN080 RMK FCST BASED ON AUTO OBS. NXT FCST BY 150600Z



MetMap, La meteo Aeronautica in un colpo d'occhio ! - Copyright ORBIFLY Dicembre 2007 - Disclaimer

ORBIFLY MET'MAP TEAM :

Programmazione e sviluppo : Alexandra Zaïnal
Concezione : Baudouin d'Aumeries
Aiuto per la programmazione : Marc-Olivier Méhu
Supporto tecnico e logistico : Manuel Goepfert
Aiuto per la traduzione : Arnaldo La Scala

Contatto : metmap@orbifly.com




FONTI E CREDITI :

   NOAA       Earth
Advisory